Terminal Aerodrome Forecast
Issued by NWS

Home | Current Version | Previous Version | Text Only | Print | Product List | Glossary On
Versions: 1 2 3 4 5 6 7 8 9 10 11 12 13 14 15 16
796
FTUS44 KLZK 221730
TAFLLQ
TAF
KLLQ 221730Z 2218/2318 24008KT P6SM -RA BKN015
     FM222130 32011KT P6SM SCT030 OVC050
     FM230200 33004KT P6SM SCT250
     FM231500 VRB03KT P6SM SKC=

USA.gov is the U.S. government's official web portal to all federal, state and local government web resources and services.